White Rock, Minnesota
Current Conditions -  °F | °C
As of 5:34 AM on Thursday 18 Dec 2014 (Local Time) from KSYN Reporting Station
Clear Clear  
Wind Chill: 10°   Ceiling: Unl
Heat Index: 10°   Visibility: 10mi
Dew Point:   Wind: 0mph
Humidity: 86%   Direction: NA
Pressure: 30.28"   Gusts: NA
Location:  44.4763°N, 92.8054°W
Report Text: KSYN 181134Z AUTO 00000KT 10SM CLR M12/M14 A3028 RMK AO2 T11251144
Loading
Personal Weather Stations






























Interactive Weather Map New forecast layout! Learn more

10-Day Weather Forecast

Advertisements
Track Severe Weather on mobile